METAR Data
IDs: Format: Raw Decoded Include TAF

Data at: 0524 UTC 19 Aug 2019

KROG 190458Z AUTO 14006KT 10SM OVC100 26/21 A3000 RMK AO2 SLP140 T02560206 403110222
KROG 190358Z AUTO 13006KT 10SM OVC110 26/21 A2999 RMK AO2 SLP137 T02560206
KROG 190258Z AUTO 12005KT 10SM OVC100 26/23 A2998 RMK AO2 SLP136 T02610228 53021
KROG 190158Z AUTO 12005KT 10SM SCT095 26/22 A2996 RMK AO2 SLP129 T02610217
KROG 190058Z AUTO 13004KT 10SM SCT090 28/22 A2994 RMK AO2 SLP121 T02780217
KROG 182358Z 00000KT 10SM CLR 29/21 A2992 RMK AO2 SLP115 60000 T02940211 10311 20261 53004
KROG 182258Z 23004KT 10SM CLR 31/19 A2992 RMK AO2 SLP112 T03110194
KROG 182158Z 20009KT 10SM CLR 31/19 A2991 RMK AO2 SLP110 T03110189
KROG 182058Z 25007KT 10SM CLR 31/20 A2991 RMK AO2 SLP110 60000 T03060200 56010
KROG 181958Z 24007KT 10SM CLR 29/19 A2992 RMK AO2 SLP114 T02890189
KROG 181858Z 19012G17KT 10SM CLR 27/21 A2992 RMK AO2 LTG DSNT SE AND S RAB00E11 SLP115 P0000 T02670211
KROG 181758Z 18012KT 10SM FEW075 SCT095 BKN110 27/23 A2994 RMK AO2 LTG DSNT S AND SW TSB13E28RAB44E58 SLP121 P0000 60000 T02720228 10300 20222 58014
KROG 181731Z 21009KT 10SM FEW028 28/23 A2996 RMK AO2 LTG DSNT SE AND SW TSB13E28 PRESFR
KROG 181715Z 26005KT 10SM VCTS BKN030 28/23 A2998 RMK AO2 LTG DSNT SW TSB13
KROG 181712Z 27006KT 10SM BKN028 BKN034 29/23 A2998 RMK AO2 LTG DSNT SW
KROG 181658Z 26006G15KT 10SM BKN030 BKN034 29/23 A2999 RMK AO2 LTG DSNT SW SLP137 T02940233
KROG 181558Z 22008G17KT 10SM CLR 29/23 A2999 RMK AO2 SLP137 T02890228
KROG 181458Z 19008KT 10SM CLR 27/21 A2998 RMK AO2 SLP136 60000 T02670211 53004
KROG 181358Z 13009KT 10SM CLR 25/21 A2994 RMK AO2 SLP123 T02500206
KROG 181333Z 12007KT 10SM SCT024 SCT035 23/20 A2996 RMK AO2
KROG 181258Z 08006KT 10SM OVC026 23/19 A2998 RMK AO2 RAB39E52 SLP134 P0000 T02280194
KROG 181158Z AUTO 02008KT 10SM BKN022 BKN045 OVC070 24/21 A2997 RMK AO2 LTG DSNT N SLP130 T02390211 10256 20233 53022
KROG 181058Z AUTO 28003KT 10SM CLR 23/21 A2993 RMK AO2 LTG DSNT NW SLP117 T02330211
KROG 180958Z AUTO 16008KT 10SM CLR 25/21 A2989 RMK AO2 SLP104 T02500211
KROG 180858Z AUTO 16006KT 10SM CLR 25/21 A2990 RMK AO2 SLP106 T02500206 55000
KROG 180758Z AUTO 17012KT 10SM CLR 26/21 A2988 RMK AO2 SLP098 T02560206
KROG 180658Z AUTO 16006KT 10SM CLR 25/21 A2990 RMK AO2 SLP105 T02500206
KROG 180558Z AUTO 13006KT 10SM CLR 25/21 A2990 RMK AO2 SLP107 T02500211 10306 20250 50003
KROG 180458Z AUTO 15006KT 10SM CLR 26/21 A2991 RMK AO2 SLP110 T02610211 403280211
KROG 180358Z AUTO 15007KT 10SM CLR 26/22 A2991 RMK AO2 SLP109 T02610217
KROG 180258Z AUTO 14006KT 10SM CLR 27/22 A2989 RMK AO2 SLP104 T02670222 53008
KROG 180158Z AUTO 13007KT 10SM CLR 28/22 A2987 RMK AO2 SLP097 T02780217
KROG 180058Z AUTO 14006KT 10SM CLR 28/22 A2986 RMK AO2 SLP095 T02830222
KROG 172358Z 13006KT 10SM CLR 31/22 A2987 RMK AO2 SLP097 T03060222 10328 20289 56011
KROG 172258Z 16012KT 10SM CLR 31/21 A2987 RMK AO2 SLP098 T03110211
KROG 172158Z 15010KT 10SM CLR 32/22 A2988 RMK AO2 SLP101 T03220217
KROG 172058Z 16010KT 10SM CLR 32/22 A2990 RMK AO2 SLP107 T03220222 56019
KROG 171958Z 15011G16KT 10SM CLR 32/23 A2992 RMK AO2 SLP113 T03170228
KROG 171858Z 14009KT 10SM CLR 31/22 A2994 RMK AO2 SLP120 T03110222
KROG 171815Z 13005KT 10SM SCT029 30/23 A2995 RMK AO2
KROG 171758Z 00000KT 10SM BKN029 29/22 A2996 RMK AO2 SLP128 T02890222 10300 20217 58019